createdAt,value
2023-04-21T00:00:58.303Z,100.00
2023-04-21T00:03:27.299Z,100.00
2023-04-21T00:05:57.999Z,100.00
2023-04-21T00:08:26.226Z,100.00
2023-04-21T00:10:52.415Z,100.00
2023-04-21T00:13:18.771Z,100.00
2023-04-21T00:15:44.903Z,100.00
2023-04-21T00:18:12.744Z,100.00
2023-04-21T00:20:38.808Z,100.00
2023-04-21T00:23:05.163Z,100.00
2023-04-21T00:25:31.319Z,100.00
2023-04-21T00:27:57.692Z,100.00
2023-04-21T00:30:23.860Z,100.00
2023-04-21T00:32:50.253Z,100.00
2023-04-21T00:35:16.385Z,100.00
2023-04-21T00:37:42.994Z,100.00
2023-04-21T00:40:11.308Z,100.00
2023-04-21T00:42:39.684Z,100.00
2023-04-21T00:45:06.276Z,100.00
2023-04-21T00:47:32.767Z,100.00
2023-04-21T00:49:59.374Z,100.00
2023-04-21T00:52:27.396Z,100.00
2023-04-21T00:54:54.084Z,100.00
2023-04-21T00:57:21.052Z,100.00
2023-04-21T00:59:47.386Z,100.00
2023-04-21T01:02:15.775Z,100.00
2023-04-21T01:04:43.153Z,100.00
2023-04-21T01:07:09.588Z,100.00
2023-04-21T01:09:35.720Z,100.00
2023-04-21T01:12:05.083Z,100.00
2023-04-21T01:14:34.654Z,100.00
2023-04-21T01:17:04.477Z,100.00
2023-04-21T01:19:34.963Z,100.00
2023-04-21T01:22:02.873Z,100.00
2023-04-21T01:24:44.690Z,100.00
2023-04-21T01:27:18.303Z,100.00
2023-04-21T01:29:46.368Z,100.00
2023-04-21T01:32:15.859Z,100.00
2023-04-21T01:34:43.433Z,100.00
2023-04-21T01:37:16.684Z,100.00
2023-04-21T01:39:46.684Z,100.00
2023-04-21T01:42:13.754Z,100.00
2023-04-21T01:44:41.496Z,100.00
2023-04-21T01:47:10.617Z,100.00
2023-04-21T01:49:36.652Z,100.00
2023-04-21T01:52:03.062Z,100.00
2023-04-21T01:54:29.303Z,100.00
2023-04-21T01:56:55.775Z,100.00
2023-04-21T01:59:21.992Z,100.00
2023-04-21T02:01:48.567Z,100.00
2023-04-21T02:04:14.971Z,100.00
2023-04-21T02:06:41.479Z,100.00
2023-04-21T02:09:07.523Z,100.00
2023-04-21T02:11:33.871Z,100.00
2023-04-21T02:14:00.233Z,100.00
2023-04-21T02:16:26.752Z,100.00
2023-04-21T02:18:53.500Z,100.00
2023-04-21T02:21:21.025Z,100.00
2023-04-21T02:23:48.782Z,100.00
2023-04-21T02:26:15.112Z,100.00
2023-04-21T02:28:41.200Z,100.00
2023-04-21T02:31:07.682Z,100.00
2023-04-21T02:33:34.160Z,100.00
2023-04-21T02:36:00.561Z,100.00
2023-04-21T02:38:26.684Z,100.00
2023-04-21T02:40:54.292Z,100.00
2023-04-21T02:43:20.380Z,100.00
2023-04-21T02:45:48.332Z,100.00
2023-04-21T02:48:14.644Z,100.00
2023-04-21T02:50:42.492Z,100.00
2023-04-21T02:53:08.578Z,100.00
2023-04-21T02:55:35.038Z,100.00
2023-04-21T02:58:01.953Z,100.00
2023-04-21T03:00:28.372Z,100.00
2023-04-21T03:02:54.740Z,100.00
2023-04-21T03:05:21.317Z,100.00
2023-04-21T03:07:47.434Z,100.00
2023-04-21T03:10:13.938Z,100.00
2023-04-21T03:12:40.017Z,100.00
2023-04-21T03:15:06.624Z,100.00
2023-04-21T03:17:34.420Z,100.00
2023-04-21T03:20:03.345Z,100.00
2023-04-21T03:22:29.930Z,100.00
2023-04-21T03:24:56.352Z,100.00
2023-04-21T03:27:22.490Z,100.00
2023-04-21T03:29:48.844Z,100.00
2023-04-21T03:32:15.048Z,100.00
2023-04-21T03:34:41.514Z,100.00
2023-04-21T03:37:08.458Z,100.00
2023-04-21T03:39:34.943Z,100.00
2023-04-21T03:42:01.454Z,100.00
2023-04-21T03:44:29.183Z,100.00
2023-04-21T03:46:55.310Z,100.00
2023-04-21T03:49:23.416Z,100.00
2023-04-21T03:51:49.649Z,100.00
2023-04-21T03:54:16.070Z,100.00
2023-04-21T03:56:42.112Z,100.00
2023-04-21T03:59:08.500Z,100.00
2023-04-21T04:01:34.765Z,100.00
2023-04-21T04:04:01.523Z,100.00
2023-04-21T04:06:27.873Z,100.00
2023-04-21T04:08:54.346Z,100.00
2023-04-21T04:11:20.424Z,100.00
2023-04-21T04:13:46.808Z,100.00
2023-04-21T04:16:12.930Z,100.00
2023-04-21T04:18:39.299Z,100.00
2023-04-21T04:21:06.784Z,100.00
2023-04-21T04:23:33.892Z,100.00
2023-04-21T04:26:00.956Z,100.00
2023-04-21T04:28:28.089Z,100.00
2023-04-21T04:30:54.638Z,100.00
2023-04-21T04:33:21.168Z,100.00
2023-04-21T04:35:47.393Z,100.00
2023-04-21T04:38:16.718Z,100.00
2023-04-21T04:40:43.057Z,100.00
2023-04-21T04:43:12.065Z,100.00
2023-04-21T04:45:38.362Z,100.00
2023-04-21T04:48:05.710Z,100.00
2023-04-21T04:50:32.047Z,100.00
2023-04-21T04:52:58.729Z,100.00
2023-04-21T04:55:25.287Z,100.00
2023-04-21T04:57:51.987Z,100.00
2023-04-21T05:00:18.593Z,100.00
2023-04-21T05:02:45.234Z,100.00
2023-04-21T05:05:11.851Z,100.00
2023-04-21T05:07:38.487Z,100.00
2023-04-21T05:10:05.461Z,100.00
2023-04-21T05:12:32.127Z,100.00
2023-04-21T05:14:58.557Z,100.00
2023-04-21T05:17:25.635Z,100.00
2023-04-21T05:19:51.967Z,100.00
2023-04-21T05:22:18.357Z,100.00
2023-04-21T05:24:44.933Z,100.00
2023-04-21T05:27:11.428Z,100.00
2023-04-21T05:29:37.812Z,100.00
2023-04-21T05:32:04.973Z,100.00
2023-04-21T05:34:31.160Z,100.00
2023-04-21T05:36:57.520Z,99.52
2023-04-21T05:39:23.646Z,99.56
2023-04-21T05:41:50.141Z,100.00
2023-04-21T05:44:17.253Z,100.00
2023-04-21T05:46:44.236Z,99.32
2023-04-21T05:49:10.681Z,99.32
2023-04-21T05:51:37.125Z,98.99
2023-04-21T05:54:03.697Z,98.06
2023-04-21T05:56:30.074Z,97.54
2023-04-21T05:58:56.214Z,95.57
2023-04-21T06:01:22.568Z,94.87
2023-04-21T06:03:49.449Z,94.36
2023-04-21T06:06:17.006Z,94.67
2023-04-21T06:08:43.243Z,93.50
2023-04-21T06:11:09.776Z,92.21
2023-04-21T06:13:38.087Z,87.06
2023-04-21T06:16:05.270Z,85.23
2023-04-21T06:18:31.469Z,86.25
2023-04-21T06:20:57.874Z,84.60
2023-04-21T06:23:23.991Z,80.73
2023-04-21T06:26:00.904Z,78.31
2023-04-21T06:28:27.055Z,77.70
2023-04-21T06:30:53.509Z,78.08
2023-04-21T06:33:19.807Z,78.20
2023-04-21T06:35:46.536Z,75.81
2023-04-21T06:38:12.656Z,72.03
2023-04-21T06:40:39.339Z,70.68
2023-04-21T06:43:05.925Z,70.20
2023-04-21T06:45:32.284Z,72.05
2023-04-21T06:47:58.792Z,68.86
2023-04-21T06:50:25.312Z,68.39
2023-04-21T06:52:51.458Z,65.31
2023-04-21T06:55:18.002Z,64.55
2023-04-21T06:57:44.086Z,64.37
2023-04-21T07:00:11.458Z,63.16
2023-04-21T07:02:37.781Z,62.60
2023-04-21T07:05:04.908Z,61.85
2023-04-21T07:07:31.183Z,62.01
2023-04-21T07:09:57.884Z,61.68
2023-04-21T07:12:24.250Z,61.79
2023-04-21T07:14:50.878Z,61.48
2023-04-21T07:17:17.399Z,60.66
2023-04-21T07:19:44.276Z,59.94
2023-04-21T07:22:10.647Z,60.70
2023-04-21T07:24:37.166Z,61.05
2023-04-21T07:27:03.457Z,60.12
2023-04-21T07:29:29.994Z,60.51
2023-04-21T07:31:57.745Z,60.47
2023-04-21T07:34:24.897Z,60.20
2023-04-21T07:36:51.926Z,61.51
2023-04-21T07:39:18.524Z,61.76
2023-04-21T07:41:44.882Z,61.07
2023-04-21T07:44:11.608Z,61.32
2023-04-21T07:46:38.018Z,59.68
2023-04-21T07:49:04.722Z,59.70
2023-04-21T07:51:31.244Z,59.32
2023-04-21T07:53:57.626Z,60.49
2023-04-21T07:56:23.765Z,62.05
2023-04-21T07:58:50.182Z,63.65
2023-04-21T08:01:16.419Z,61.61
2023-04-21T08:03:43.050Z,62.32
2023-04-21T08:06:09.483Z,60.34
2023-04-21T08:08:38.712Z,61.70
2023-04-21T08:11:04.789Z,60.67
2023-04-21T08:13:31.437Z,61.83
2023-04-21T08:15:57.989Z,64.08
2023-04-21T08:18:24.475Z,62.13
2023-04-21T08:20:51.693Z,61.96
2023-04-21T08:23:19.043Z,63.46
2023-04-21T08:25:45.315Z,62.11
2023-04-21T08:28:11.839Z,62.66
2023-04-21T08:30:37.948Z,62.30
2023-04-21T08:33:04.495Z,63.60
2023-04-21T08:35:31.016Z,62.18
2023-04-21T08:37:57.382Z,63.77
2023-04-21T08:40:32.202Z,64.75
2023-04-21T08:42:59.504Z,65.37
2023-04-21T08:45:27.200Z,65.58
2023-04-21T08:47:55.401Z,65.88
2023-04-21T08:50:26.755Z,65.62
2023-04-21T08:52:55.808Z,64.00
2023-04-21T08:55:26.419Z,65.33
2023-04-21T08:57:52.802Z,64.14
2023-04-21T09:00:19.199Z,64.40
2023-04-21T09:03:00.776Z,65.58
2023-04-21T09:05:32.756Z,65.29
2023-04-21T09:08:17.703Z,62.66
2023-04-21T09:10:45.739Z,65.51
2023-04-21T09:13:12.218Z,63.46
2023-04-21T09:15:43.262Z,64.06
2023-04-21T09:18:13.890Z,63.29
2023-04-21T09:20:41.229Z,62.81
2023-04-21T09:23:07.642Z,63.75
2023-04-21T09:25:33.900Z,61.42
2023-04-21T09:28:00.379Z,60.81
2023-04-21T09:30:26.571Z,60.77
2023-04-21T09:32:57.331Z,62.73
2023-04-21T09:35:28.621Z,60.97
2023-04-21T09:37:55.145Z,60.12
2023-04-21T09:40:21.235Z,61.28
2023-04-21T09:42:48.773Z,60.45
2023-04-21T09:47:52.772Z,60.74
2023-04-21T09:50:41.874Z,60.42
2023-04-21T09:53:13.396Z,60.07
2023-04-21T09:55:41.492Z,59.48
2023-04-21T09:58:12.554Z,58.70
2023-04-21T10:00:40.268Z,60.66
2023-04-21T10:03:10.778Z,59.68
2023-04-21T10:05:40.250Z,59.62
2023-04-21T10:08:10.657Z,56.36
2023-04-21T10:10:38.016Z,59.40
2023-04-21T10:13:04.373Z,56.58
2023-04-21T10:15:37.868Z,57.54
2023-04-21T10:18:22.240Z,61.24
2023-04-21T10:21:03.501Z,59.28
2023-04-21T10:23:42.173Z,61.13
2023-04-21T10:26:10.818Z,59.91
2023-04-21T10:28:51.336Z,59.37
2023-04-21T10:31:19.406Z,59.79
2023-04-21T10:34:07.760Z,60.04
2023-04-21T10:37:06.722Z,58.43
2023-04-21T10:39:37.738Z,57.75
2023-04-21T10:42:13.104Z,57.68
2023-04-21T10:44:52.297Z,59.38
2023-04-21T10:47:32.823Z,57.01
2023-04-21T10:50:09.512Z,58.86
2023-04-21T10:52:36.053Z,60.59
2023-04-21T10:55:09.870Z,57.35
2023-04-21T10:57:37.280Z,58.60
2023-04-21T11:00:08.353Z,59.47
2023-04-21T11:02:38.117Z,57.56
2023-04-21T11:05:08.183Z,60.44
2023-04-21T11:07:34.795Z,59.90
2023-04-21T11:10:02.361Z,60.02
2023-04-21T11:12:31.609Z,61.05
2023-04-21T11:14:57.840Z,58.45
2023-04-21T11:17:25.032Z,57.57
2023-04-21T11:19:55.298Z,57.98
2023-04-21T11:22:23.960Z,57.03
2023-04-21T11:24:53.885Z,60.01
2023-04-21T11:27:27.035Z,59.08
2023-04-21T11:29:53.156Z,58.51
2023-04-21T11:32:19.975Z,59.95
2023-04-21T11:34:47.270Z,58.71
2023-04-21T11:37:16.158Z,58.79
2023-04-21T11:39:43.643Z,58.56
2023-04-21T11:42:11.094Z,56.82
2023-04-21T11:44:41.980Z,58.57
2023-04-21T11:47:24.509Z,57.69
2023-04-21T11:49:56.900Z,58.26
2023-04-21T11:52:27.926Z,56.52
2023-04-21T11:54:57.063Z,57.90
2023-04-21T11:57:24.717Z,58.50
2023-04-21T11:59:51.624Z,56.34
2023-04-21T12:02:23.511Z,57.31
2023-04-21T12:05:06.831Z,57.72
2023-04-21T12:07:36.053Z,56.89
2023-04-21T12:10:09.014Z,54.56
2023-04-21T12:12:40.360Z,57.46
2023-04-21T12:15:08.265Z,55.84
2023-04-21T12:17:39.339Z,57.27
2023-04-21T12:20:07.088Z,57.50
2023-04-21T12:22:33.517Z,56.99
2023-04-21T12:24:59.659Z,54.59
2023-04-21T12:27:26.824Z,54.50
2023-04-21T12:29:53.350Z,54.91
2023-04-21T12:32:20.856Z,54.22
2023-04-21T12:34:47.135Z,52.85
2023-04-21T12:37:13.805Z,53.00
2023-04-21T12:39:40.440Z,52.03
2023-04-21T12:42:07.156Z,51.79
2023-04-21T12:44:33.539Z,52.63
2023-04-21T12:47:02.321Z,56.18
2023-04-21T12:49:29.143Z,53.74
2023-04-21T12:51:56.072Z,53.70
2023-04-21T12:54:22.238Z,50.32
2023-04-21T12:56:48.837Z,50.46
2023-04-21T12:59:15.142Z,54.05
2023-04-21T13:01:43.265Z,53.46
2023-04-21T13:04:10.163Z,53.49
2023-04-21T13:06:38.233Z,51.27
2023-04-21T13:09:05.611Z,52.29
2023-04-21T13:11:32.230Z,50.61
2023-04-21T13:13:58.539Z,51.49
2023-04-21T13:16:26.239Z,52.69
2023-04-21T13:18:53.761Z,51.88
2023-04-21T13:21:20.523Z,51.28
2023-04-21T13:23:46.937Z,51.59
2023-04-21T13:26:14.248Z,52.15
2023-04-21T13:28:40.825Z,51.84
2023-04-21T13:31:07.562Z,49.25
2023-04-21T13:33:34.816Z,51.21
2023-04-21T13:36:02.789Z,49.26
2023-04-21T13:38:29.959Z,50.93
2023-04-21T13:40:56.786Z,49.78
2023-04-21T13:43:23.095Z,49.88
2023-04-21T13:45:51.434Z,49.50
2023-04-21T13:48:21.374Z,48.90
2023-04-21T13:50:48.310Z,50.46
2023-04-21T13:53:15.485Z,52.05
2023-04-21T13:55:43.216Z,50.49
2023-04-21T13:58:10.410Z,50.57
2023-04-21T14:00:37.970Z,51.03
2023-04-21T14:03:05.205Z,49.94
2023-04-21T14:05:32.495Z,47.52
2023-04-21T14:07:59.747Z,48.56
2023-04-21T14:10:26.942Z,48.20
2023-04-21T14:12:53.776Z,49.27
2023-04-21T14:15:20.524Z,50.07
2023-04-21T14:17:46.987Z,49.84
2023-04-21T14:20:13.479Z,50.46
2023-04-21T14:22:39.640Z,49.52
2023-04-21T14:25:06.241Z,49.33
2023-04-21T14:27:32.445Z,48.62
2023-04-21T14:29:59.526Z,49.53
2023-04-21T14:32:25.985Z,49.31
2023-04-21T14:34:52.990Z,50.03
2023-04-21T14:37:20.799Z,49.21
2023-04-21T14:39:47.327Z,49.43
2023-04-21T14:42:13.433Z,51.45
2023-04-21T14:44:39.831Z,49.45
2023-04-21T14:47:09.692Z,49.93
2023-04-21T14:49:38.169Z,47.70
2023-04-21T14:52:04.588Z,49.62
2023-04-21T14:54:31.355Z,49.36
2023-04-21T14:57:14.814Z,50.02
2023-04-21T14:59:46.008Z,50.70
2023-04-21T15:02:12.384Z,50.68
2023-04-21T15:04:39.212Z,49.72
2023-04-21T15:07:05.422Z,48.19
2023-04-21T15:09:32.304Z,49.87
2023-04-21T15:11:58.715Z,50.73
2023-04-21T15:14:25.637Z,50.30
2023-04-21T15:16:52.215Z,50.36
2023-04-21T15:19:18.671Z,50.16
2023-04-21T15:21:45.480Z,51.74
2023-04-21T15:24:12.282Z,49.29
2023-04-21T15:26:40.218Z,51.57
2023-04-21T15:29:07.504Z,49.89
2023-04-21T15:31:35.238Z,50.93
2023-04-21T15:34:02.271Z,50.63
2023-04-21T15:36:28.751Z,51.83
2023-04-21T15:38:55.663Z,53.81
2023-04-21T15:41:22.087Z,50.43
2023-04-21T15:43:48.823Z,52.58
2023-04-21T15:46:15.169Z,52.72
2023-04-21T15:48:41.996Z,50.66
2023-04-21T15:51:09.071Z,51.29
2023-04-21T15:53:36.702Z,53.41
2023-04-21T15:56:06.652Z,53.54
2023-04-21T15:58:33.066Z,52.17
2023-04-21T16:00:59.114Z,53.46
2023-04-21T16:03:25.707Z,51.96
2023-04-21T16:05:52.778Z,50.98
2023-04-21T16:08:20.084Z,50.85
2023-04-21T16:10:46.362Z,50.52
2023-04-21T16:13:13.056Z,50.55
2023-04-21T16:15:40.261Z,48.94
2023-04-21T16:18:07.882Z,51.15
2023-04-21T16:20:35.571Z,51.52
2023-04-21T16:23:04.115Z,50.67
2023-04-21T16:25:31.788Z,50.64
2023-04-21T16:27:58.578Z,51.09
2023-04-21T16:30:24.780Z,49.97
2023-04-21T16:32:51.305Z,51.69
2023-04-21T16:35:18.348Z,50.29
2023-04-21T16:37:45.286Z,50.68
2023-04-21T16:40:11.781Z,52.13
2023-04-21T16:42:38.219Z,50.38
2023-04-21T16:45:05.135Z,51.27
2023-04-21T16:47:36.584Z,49.99
2023-04-21T16:50:05.808Z,51.64
2023-04-21T16:52:32.193Z,50.26
2023-04-21T16:54:58.288Z,52.38
2023-04-21T16:57:25.035Z,51.61
2023-04-21T16:59:52.262Z,51.59
2023-04-21T17:02:19.150Z,52.13
2023-04-21T17:04:46.380Z,51.82
2023-04-21T17:07:13.057Z,51.48
2023-04-21T17:09:39.227Z,51.55
2023-04-21T17:12:05.749Z,53.11
2023-04-21T17:14:32.117Z,52.31
2023-04-21T17:16:58.791Z,52.21
2023-04-21T17:19:24.966Z,52.30
2023-04-21T17:21:51.339Z,52.80
2023-04-21T17:24:17.558Z,53.13
2023-04-21T17:26:44.164Z,53.28
2023-04-21T17:29:10.457Z,53.04
2023-04-21T17:31:37.277Z,52.74
2023-04-21T17:34:03.423Z,54.01
2023-04-21T17:36:30.028Z,53.90
2023-04-21T17:38:57.628Z,54.14
2023-04-21T17:41:25.617Z,54.18
2023-04-21T17:43:54.162Z,54.48
2023-04-21T17:46:24.178Z,54.33
2023-04-21T17:48:51.537Z,54.60
2023-04-21T17:51:18.610Z,55.03
2023-04-21T17:53:45.924Z,54.94
2023-04-21T17:56:13.661Z,55.28
2023-04-21T17:58:43.084Z,55.34
2023-04-21T18:01:09.705Z,55.67
2023-04-21T18:03:36.449Z,56.60
2023-04-21T18:06:04.112Z,56.35
2023-04-21T18:08:30.435Z,56.54
2023-04-21T18:10:57.041Z,56.61
2023-04-21T18:13:23.273Z,56.73
2023-04-21T18:15:50.070Z,56.32
2023-04-21T18:18:16.363Z,56.94
2023-04-21T18:20:42.836Z,57.23
2023-04-21T18:23:09.220Z,57.98
2023-04-21T18:25:42.418Z,58.36
2023-04-21T18:28:13.610Z,59.15
2023-04-21T18:30:40.251Z,58.78
2023-04-21T18:33:06.858Z,59.91
2023-04-21T18:35:33.772Z,60.76
2023-04-21T18:38:00.541Z,59.49
2023-04-21T18:40:27.283Z,59.65
2023-04-21T18:42:53.702Z,60.38
2023-04-21T18:45:20.275Z,60.66
2023-04-21T18:47:47.073Z,62.20
2023-04-21T18:50:13.859Z,67.13
2023-04-21T18:52:40.341Z,68.54
2023-04-21T18:55:07.421Z,70.41
2023-04-21T18:57:33.795Z,71.41
2023-04-21T19:00:00.608Z,70.74
2023-04-21T19:02:28.617Z,72.78
2023-04-21T19:04:55.696Z,72.80
2023-04-21T19:07:22.104Z,73.71
2023-04-21T19:09:49.040Z,75.36
2023-04-21T19:12:15.832Z,75.99
2023-04-21T19:14:47.138Z,76.28
2023-04-21T19:17:15.008Z,75.29
2023-04-21T19:19:42.156Z,75.36
2023-04-21T19:22:08.723Z,74.97
2023-04-21T19:24:35.444Z,75.41
2023-04-21T19:27:02.815Z,78.45
2023-04-21T19:29:29.721Z,77.51
2023-04-21T19:31:56.228Z,80.57
2023-04-21T19:34:23.131Z,78.89
2023-04-21T19:36:52.097Z,80.76
2023-04-21T19:39:19.204Z,82.77
2023-04-21T19:41:45.494Z,81.02
2023-04-21T19:44:12.359Z,78.64
2023-04-21T19:46:41.801Z,78.97
2023-04-21T19:49:12.212Z,79.13
2023-04-21T19:51:39.579Z,79.37
2023-04-21T19:54:11.532Z,80.41
2023-04-21T19:56:39.530Z,80.48
2023-04-21T19:59:06.509Z,79.86
2023-04-21T20:01:33.469Z,80.91
2023-04-21T20:04:00.361Z,80.31
2023-04-21T20:06:27.855Z,79.54
2023-04-21T20:08:55.013Z,80.27
2023-04-21T20:11:21.343Z,82.37
2023-04-21T20:13:48.124Z,80.74
2023-04-21T20:16:16.835Z,82.62
2023-04-21T20:18:43.496Z,81.82
2023-04-21T20:21:10.177Z,82.89
2023-04-21T20:23:36.719Z,82.86
2023-04-21T20:26:02.901Z,83.51
2023-04-21T20:28:29.820Z,83.10
2023-04-21T20:30:56.320Z,84.27
2023-04-21T20:33:23.039Z,84.53
2023-04-21T20:35:49.400Z,84.60
2023-04-21T20:38:16.122Z,85.30
2023-04-21T20:40:42.612Z,85.95
2023-04-21T20:43:09.555Z,87.03
2023-04-21T20:45:35.864Z,86.05
2023-04-21T20:48:03.598Z,87.74
2023-04-21T20:50:29.840Z,87.16
2023-04-21T20:52:57.429Z,86.79
2023-04-21T20:55:23.670Z,86.33
2023-04-21T20:57:50.342Z,86.57
2023-04-21T21:00:16.669Z,86.29
2023-04-21T21:02:43.607Z,87.24
2023-04-21T21:05:10.120Z,86.86
2023-04-21T21:07:36.668Z,86.46
2023-04-21T21:10:03.867Z,91.37
2023-04-21T21:12:30.215Z,86.44
2023-04-21T21:14:56.856Z,83.38
2023-04-21T21:17:24.469Z,82.33
2023-04-21T21:19:50.725Z,82.33
2023-04-21T21:22:17.161Z,81.88
2023-04-21T21:24:43.442Z,81.22
2023-04-21T21:27:10.158Z,79.35
2023-04-21T21:29:36.659Z,79.06
2023-04-21T21:32:03.518Z,79.08
2023-04-21T21:34:29.697Z,79.31
2023-04-21T21:36:56.036Z,79.65
2023-04-21T21:39:22.217Z,78.16
2023-04-21T21:41:48.682Z,78.14
2023-04-21T21:44:14.825Z,78.78
2023-04-21T21:46:41.726Z,78.52
2023-04-21T21:49:08.179Z,79.03
2023-04-21T21:51:34.706Z,79.16
2023-04-21T21:54:01.007Z,80.64
2023-04-21T21:56:27.820Z,80.58
2023-04-21T21:58:53.999Z,81.37
2023-04-21T22:01:20.457Z,81.01
2023-04-21T22:03:46.854Z,81.22
2023-04-21T22:06:16.317Z,82.87
2023-04-21T22:08:43.509Z,83.25
2023-04-21T22:11:10.220Z,84.16
2023-04-21T22:13:36.693Z,84.30
2023-04-21T22:16:03.435Z,84.86
2023-04-21T22:18:30.105Z,85.76
2023-04-21T22:20:58.288Z,86.29
2023-04-21T22:23:25.269Z,85.33
2023-04-21T22:25:52.094Z,85.57
2023-04-21T22:28:18.405Z,85.51
2023-04-21T22:30:45.253Z,87.82
2023-04-21T22:33:11.966Z,88.78
2023-04-21T22:35:39.265Z,88.84
2023-04-21T22:38:05.703Z,88.28
2023-04-21T22:40:32.442Z,87.57
2023-04-21T22:42:58.552Z,86.91
2023-04-21T22:45:25.942Z,88.72
2023-04-21T22:47:52.525Z,89.92
2023-04-21T22:50:19.166Z,89.18
2023-04-21T22:52:45.716Z,89.71
2023-04-21T22:55:12.246Z,89.73
2023-04-21T22:57:38.574Z,90.87
2023-04-21T23:00:07.289Z,91.31
2023-04-21T23:02:33.593Z,91.03
2023-04-21T23:05:00.274Z,93.67
2023-04-21T23:07:26.454Z,91.16
2023-04-21T23:09:52.791Z,92.93
2023-04-21T23:12:19.095Z,92.24
2023-04-21T23:14:45.732Z,92.90
2023-04-21T23:17:11.815Z,94.21
2023-04-21T23:19:38.359Z,94.18
2023-04-21T23:22:04.605Z,91.98
2023-04-21T23:24:30.977Z,90.95
2023-04-21T23:26:57.104Z,90.90
2023-04-21T23:29:23.552Z,90.78
2023-04-21T23:31:49.763Z,90.83
2023-04-21T23:34:16.207Z,92.29
2023-04-21T23:36:42.274Z,92.12
2023-04-21T23:39:09.191Z,91.55
2023-04-21T23:41:35.328Z,91.67
2023-04-21T23:44:01.745Z,91.25
2023-04-21T23:46:27.875Z,91.54
2023-04-21T23:48:54.357Z,91.23
2023-04-21T23:51:21.438Z,91.45
2023-04-21T23:53:48.086Z,92.11
2023-04-21T23:56:14.311Z,93.84
2023-04-21T23:58:40.743Z,94.96
